createdAt,value
2022-11-25T00:01:19.442Z,4.66
2022-11-25T00:03:47.921Z,4.93
2022-11-25T00:06:17.102Z,5.02
2022-11-25T00:08:47.812Z,5.20
2022-11-25T00:11:15.813Z,5.28
2022-11-25T00:13:44.770Z,5.38
2022-11-25T00:16:13.868Z,5.49
2022-11-25T00:18:42.063Z,5.48
2022-11-25T00:21:12.245Z,5.58
2022-11-25T00:23:41.481Z,5.75
2022-11-25T00:26:12.664Z,5.87
2022-11-25T00:28:41.022Z,5.88
2022-11-25T00:31:10.836Z,5.84
2022-11-25T00:33:38.910Z,5.87
2022-11-25T00:36:08.569Z,5.90
2022-11-25T00:38:36.210Z,5.72
2022-11-25T00:41:21.858Z,5.78
2022-11-25T00:44:08.425Z,5.76
2022-11-25T00:46:35.991Z,5.46
2022-11-25T00:49:03.699Z,5.46
2022-11-25T00:51:31.406Z,5.24
2022-11-25T00:53:59.371Z,5.20
2022-11-25T00:56:27.471Z,5.23
2022-11-25T00:58:57.350Z,5.45
2022-11-25T01:01:25.337Z,5.46
2022-11-25T01:03:54.284Z,5.36
2022-11-25T01:06:23.008Z,5.46
2022-11-25T01:08:51.021Z,5.54
2022-11-25T01:11:20.485Z,5.37
2022-11-25T01:14:02.162Z,5.34
2022-11-25T01:16:33.451Z,5.37
2022-11-25T01:19:02.790Z,5.46
2022-11-25T01:21:32.083Z,5.37
2022-11-25T01:24:01.783Z,5.56
2022-11-25T01:26:30.894Z,5.58
2022-11-25T01:29:01.078Z,5.63
2022-11-25T01:31:31.698Z,5.67
2022-11-25T01:34:01.045Z,5.77
2022-11-25T01:36:30.185Z,5.93
2022-11-25T01:38:59.459Z,5.95
2022-11-25T01:41:29.739Z,6.09
2022-11-25T01:44:09.508Z,6.11
2022-11-25T01:46:54.632Z,6.23
2022-11-25T01:49:28.659Z,6.18
2022-11-25T01:51:59.251Z,6.26
2022-11-25T01:54:31.098Z,6.37
2022-11-25T01:57:02.485Z,6.35
2022-11-25T01:59:31.026Z,6.39
2022-11-25T02:02:00.412Z,6.42
2022-11-25T02:04:33.505Z,6.45
2022-11-25T02:07:05.676Z,6.49
2022-11-25T02:09:34.023Z,6.58
2022-11-25T02:12:02.374Z,6.62
2022-11-25T02:14:29.985Z,6.64
2022-11-25T02:16:57.604Z,6.69
2022-11-25T02:19:35.798Z,6.70
2022-11-25T02:22:07.159Z,6.82
2022-11-25T02:24:41.247Z,6.82
2022-11-25T02:27:14.327Z,6.82
2022-11-25T02:29:43.149Z,6.80
2022-11-25T02:32:10.762Z,6.89
2022-11-25T02:34:47.728Z,6.85
2022-11-25T02:37:17.011Z,6.91
2022-11-25T02:39:45.014Z,6.87
2022-11-25T02:42:14.413Z,6.83
2022-11-25T02:44:42.157Z,6.81
2022-11-25T02:47:11.022Z,6.82
2022-11-25T02:49:38.813Z,6.82
2022-11-25T02:52:06.431Z,6.84
2022-11-25T02:54:34.774Z,6.80
2022-11-25T02:57:02.549Z,6.87
2022-11-25T02:59:31.525Z,6.83
2022-11-25T03:01:59.193Z,6.85
2022-11-25T03:04:27.682Z,6.90
2022-11-25T03:06:56.428Z,6.88
2022-11-25T03:09:23.962Z,6.95
2022-11-25T03:12:09.122Z,6.93
2022-11-25T03:14:39.145Z,6.97
2022-11-25T03:17:07.850Z,7.01
2022-11-25T03:19:36.174Z,6.97
2022-11-25T03:22:04.114Z,7.05
2022-11-25T03:24:33.177Z,7.05
2022-11-25T03:27:00.781Z,7.18
2022-11-25T03:29:29.448Z,7.13
2022-11-25T03:31:58.663Z,7.19
2022-11-25T03:34:26.486Z,7.13
2022-11-25T03:36:54.245Z,7.12
2022-11-25T03:39:22.865Z,7.14
2022-11-25T03:41:50.761Z,7.16
2022-11-25T03:44:19.103Z,7.21
2022-11-25T03:46:46.874Z,7.27
2022-11-25T03:49:16.682Z,7.33
2022-11-25T03:51:44.259Z,7.31
2022-11-25T03:54:12.816Z,7.37
2022-11-25T03:56:40.627Z,7.35
2022-11-25T03:59:09.182Z,7.38
2022-11-25T04:01:41.462Z,7.38
2022-11-25T04:04:11.886Z,7.35
2022-11-25T04:07:21.484Z,7.40
2022-11-25T04:09:50.889Z,7.43
2022-11-25T04:12:44.301Z,7.41
2022-11-25T04:15:12.429Z,7.38
2022-11-25T04:17:40.250Z,7.34
2022-11-25T04:20:09.489Z,7.38
2022-11-25T04:22:37.053Z,7.41
2022-11-25T04:25:07.008Z,7.42
2022-11-25T04:27:34.969Z,7.39
2022-11-25T04:30:02.735Z,7.47
2022-11-25T04:32:30.701Z,7.44
2022-11-25T04:34:59.449Z,7.44
2022-11-25T04:37:28.975Z,7.45
2022-11-25T04:39:57.224Z,7.47
2022-11-25T04:42:36.774Z,7.49
2022-11-25T04:45:22.541Z,7.50
2022-11-25T04:47:50.884Z,7.52
2022-11-25T04:50:20.695Z,7.54
2022-11-25T04:52:49.261Z,7.55
2022-11-25T04:55:16.888Z,7.57
2022-11-25T04:57:46.173Z,7.57
2022-11-25T05:00:13.484Z,7.61
2022-11-25T05:02:41.924Z,7.55
2022-11-25T05:05:10.924Z,7.57
2022-11-25T05:07:38.803Z,7.56
2022-11-25T05:10:08.375Z,7.62
2022-11-25T05:12:36.224Z,7.63
2022-11-25T05:15:06.166Z,7.66
2022-11-25T05:17:34.013Z,7.61
2022-11-25T05:20:02.115Z,7.64
2022-11-25T05:22:31.405Z,7.63
2022-11-25T05:24:59.687Z,7.68
2022-11-25T05:27:28.262Z,7.75
2022-11-25T05:29:56.562Z,7.84
2022-11-25T05:32:26.545Z,7.85
2022-11-25T05:34:54.307Z,7.91
2022-11-25T05:37:24.604Z,7.92
2022-11-25T05:39:52.405Z,7.88
2022-11-25T05:42:20.112Z,7.91
2022-11-25T05:44:47.661Z,7.93
2022-11-25T05:47:15.417Z,7.89
2022-11-25T05:49:44.550Z,7.81
2022-11-25T05:52:12.562Z,7.75
2022-11-25T05:54:40.345Z,7.74
2022-11-25T05:57:07.887Z,7.79
2022-11-25T05:59:36.471Z,7.74
2022-11-25T06:02:04.227Z,7.80
2022-11-25T06:04:31.883Z,7.80
2022-11-25T06:07:01.081Z,7.84
2022-11-25T06:09:29.708Z,7.84
2022-11-25T06:11:57.321Z,7.85
2022-11-25T06:14:26.124Z,7.88
2022-11-25T06:16:54.847Z,7.86
2022-11-25T06:19:22.525Z,7.87
2022-11-25T06:21:50.218Z,7.90
2022-11-25T06:24:24.115Z,7.88
2022-11-25T06:26:51.747Z,7.94
2022-11-25T06:29:19.469Z,7.94
2022-11-25T06:31:51.158Z,7.97
2022-11-25T06:34:19.586Z,8.04
2022-11-25T06:36:47.097Z,8.05
2022-11-25T06:39:14.802Z,8.11
2022-11-25T06:41:45.410Z,8.16
2022-11-25T06:44:13.305Z,8.17
2022-11-25T06:46:40.964Z,8.20
2022-11-25T06:49:08.569Z,8.21
2022-11-25T06:51:36.147Z,8.19
2022-11-25T06:54:05.127Z,8.20
2022-11-25T06:56:32.984Z,8.15
2022-11-25T06:59:02.627Z,8.15
2022-11-25T07:01:31.326Z,8.20
2022-11-25T07:04:01.333Z,8.19
2022-11-25T07:06:28.864Z,8.18
2022-11-25T07:08:56.578Z,8.18
2022-11-25T07:11:26.123Z,8.32
2022-11-25T07:13:55.974Z,8.27
2022-11-25T07:16:25.321Z,8.22
2022-11-25T07:18:53.050Z,8.23
2022-11-25T07:21:22.614Z,8.19
2022-11-25T07:23:51.350Z,8.26
2022-11-25T07:26:22.237Z,8.27
2022-11-25T07:30:03.553Z,8.26
2022-11-25T07:32:41.258Z,8.19
2022-11-25T07:35:09.139Z,8.21
2022-11-25T07:37:36.882Z,8.22
2022-11-25T07:40:05.369Z,8.16
2022-11-25T07:42:33.146Z,8.20
2022-11-25T07:45:00.644Z,8.23
2022-11-25T07:47:28.165Z,8.16
2022-11-25T07:49:57.449Z,8.16
2022-11-25T07:52:24.971Z,8.14
2022-11-25T07:54:54.365Z,8.26
2022-11-25T07:57:21.949Z,8.18
2022-11-25T07:59:49.715Z,8.21
2022-11-25T08:02:17.317Z,8.17
2022-11-25T08:04:44.929Z,8.14
2022-11-25T08:07:14.174Z,8.03
2022-11-25T08:09:41.719Z,8.02
2022-11-25T08:12:09.244Z,8.00
2022-11-25T08:14:36.882Z,7.96
2022-11-25T08:17:06.003Z,7.97
2022-11-25T08:19:33.919Z,7.95
2022-11-25T08:22:01.412Z,8.08
2022-11-25T08:24:30.243Z,8.09
2022-11-25T08:26:58.816Z,8.16
2022-11-25T08:29:26.304Z,8.21
2022-11-25T08:31:53.831Z,8.30
2022-11-25T08:34:23.559Z,8.32
2022-11-25T08:36:51.284Z,8.40
2022-11-25T08:39:51.933Z,8.41
2022-11-25T08:42:09.993Z,8.39
2022-11-25T08:44:38.030Z,8.40
2022-11-25T08:47:05.811Z,8.42
2022-11-25T08:49:39.072Z,8.40
2022-11-25T08:52:08.330Z,8.48
2022-11-25T08:54:35.934Z,8.57
2022-11-25T08:57:03.702Z,8.54
2022-11-25T08:59:32.624Z,8.72
2022-11-25T09:02:01.112Z,8.89
2022-11-25T09:04:29.183Z,9.01
2022-11-25T09:06:56.974Z,9.09
2022-11-25T09:09:24.933Z,9.16
2022-11-25T09:11:53.326Z,9.04
2022-11-25T09:14:21.123Z,9.00
2022-11-25T09:16:50.593Z,9.01
2022-11-25T09:19:20.478Z,9.14
2022-11-25T09:21:48.404Z,9.19
2022-11-25T09:24:16.085Z,9.22
2022-11-25T09:26:45.267Z,9.19
2022-11-25T09:29:13.812Z,9.19
2022-11-25T09:31:42.841Z,9.29
2022-11-25T09:34:12.113Z,9.26
2022-11-25T09:36:39.951Z,9.18
2022-11-25T09:39:07.599Z,9.20
2022-11-25T09:42:06.668Z,9.27
2022-11-25T09:45:00.351Z,9.27
2022-11-25T09:47:32.050Z,9.25
2022-11-25T09:50:10.542Z,9.33
2022-11-25T09:52:45.877Z,9.30
2022-11-25T09:55:17.384Z,9.39
2022-11-25T09:57:59.587Z,9.52
2022-11-25T10:00:39.068Z,9.51
2022-11-25T10:03:13.862Z,9.39
2022-11-25T10:05:47.231Z,9.51
2022-11-25T10:08:19.267Z,9.50
2022-11-25T10:10:49.802Z,9.70
2022-11-25T10:13:21.103Z,9.65
2022-11-25T10:15:51.297Z,9.85
2022-11-25T10:18:37.825Z,9.76
2022-11-25T10:21:07.334Z,9.76
2022-11-25T10:23:36.703Z,9.92
2022-11-25T10:26:13.226Z,10.06
2022-11-25T10:28:42.335Z,10.02
2022-11-25T10:31:15.044Z,10.08
2022-11-25T10:33:45.611Z,9.96
2022-11-25T10:36:17.576Z,9.87
2022-11-25T10:38:51.332Z,9.88
2022-11-25T10:41:22.528Z,9.86
2022-11-25T10:43:50.380Z,9.96
2022-11-25T10:46:30.963Z,10.11
2022-11-25T10:49:15.935Z,10.22
2022-11-25T10:51:47.814Z,10.26
2022-11-25T10:54:24.119Z,10.40
2022-11-25T10:56:56.990Z,10.45
2022-11-25T10:59:28.002Z,10.55
2022-11-25T11:02:14.750Z,10.58
2022-11-25T11:04:56.333Z,10.47
2022-11-25T11:07:26.300Z,10.52
2022-11-25T11:09:54.317Z,10.66
2022-11-25T11:12:23.961Z,10.58
2022-11-25T11:14:53.293Z,10.60
2022-11-25T11:17:36.115Z,10.65
2022-11-25T11:20:26.006Z,10.85
2022-11-25T11:23:01.132Z,10.87
2022-11-25T11:25:33.644Z,10.90
2022-11-25T11:28:02.136Z,10.75
2022-11-25T11:30:30.977Z,10.91
2022-11-25T11:33:02.144Z,10.83
2022-11-25T11:35:41.778Z,10.85
2022-11-25T11:38:24.444Z,11.07
2022-11-25T11:40:56.971Z,11.04
2022-11-25T11:43:36.935Z,10.92
2022-11-25T11:46:14.897Z,10.95
2022-11-25T11:48:53.454Z,10.98
2022-11-25T11:51:25.459Z,11.21
2022-11-25T11:53:59.575Z,11.15
2022-11-25T11:56:36.011Z,11.11
2022-11-25T11:59:18.203Z,11.10
2022-11-25T12:01:52.902Z,11.24
2022-11-25T12:04:26.163Z,11.45
2022-11-25T12:07:01.850Z,11.23
2022-11-25T12:09:33.964Z,11.07
2022-11-25T12:12:06.507Z,10.98
2022-11-25T12:14:40.753Z,10.94
2022-11-25T12:17:12.855Z,11.08
2022-11-25T12:19:45.327Z,11.19
2022-11-25T12:22:20.034Z,11.25
2022-11-25T12:24:52.573Z,11.24
2022-11-25T12:27:23.419Z,11.58
2022-11-25T12:29:54.260Z,11.79
2022-11-25T12:32:41.636Z,11.62
2022-11-25T12:35:18.009Z,11.53
2022-11-25T12:37:48.129Z,11.74
2022-11-25T12:40:19.878Z,11.85
2022-11-25T12:42:51.414Z,11.79
2022-11-25T12:45:23.293Z,11.70
2022-11-25T12:47:51.864Z,11.66
2022-11-25T12:50:22.401Z,11.60
2022-11-25T12:52:55.646Z,11.61
2022-11-25T12:55:25.711Z,11.76
2022-11-25T12:58:11.621Z,11.52
2022-11-25T13:00:51.783Z,11.53
2022-11-25T13:03:36.427Z,11.50
2022-11-25T13:06:18.422Z,11.70
2022-11-25T13:08:56.834Z,11.81
2022-11-25T13:11:58.579Z,11.61
2022-11-25T13:14:30.128Z,11.51
2022-11-25T13:17:00.068Z,11.57
2022-11-25T13:19:28.236Z,11.63
2022-11-25T13:21:58.446Z,11.74
2022-11-25T13:24:33.982Z,11.58
2022-11-25T13:27:02.333Z,11.62
2022-11-25T13:30:18.614Z,11.69
2022-11-25T13:32:46.259Z,11.49
2022-11-25T13:35:58.287Z,11.57
2022-11-25T13:38:58.875Z,11.39
2022-11-25T13:41:38.712Z,11.37
2022-11-25T13:44:08.388Z,11.22
2022-11-25T13:46:47.073Z,11.28
2022-11-25T13:49:30.100Z,11.17
2022-11-25T13:52:00.248Z,11.10
2022-11-25T13:54:34.903Z,10.99
2022-11-25T13:57:19.741Z,10.99
2022-11-25T13:59:53.251Z,10.99
2022-11-25T14:06:07.577Z,10.83
2022-11-25T14:08:39.547Z,10.85
2022-11-25T14:11:39.888Z,10.89
2022-11-25T14:14:22.239Z,10.92
2022-11-25T14:17:00.492Z,10.95
2022-11-25T14:19:52.477Z,10.95
2022-11-25T14:22:35.847Z,10.99
2022-11-25T14:25:15.060Z,10.98
2022-11-25T14:27:47.359Z,10.98
2022-11-25T14:30:18.143Z,11.08
2022-11-25T14:32:50.510Z,11.03
2022-11-25T14:35:22.269Z,10.99
2022-11-25T14:37:58.086Z,10.90
2022-11-25T14:40:30.968Z,10.89
2022-11-25T14:43:04.484Z,10.89
2022-11-25T14:45:34.352Z,10.88
2022-11-25T14:48:14.478Z,10.72
2022-11-25T14:50:55.372Z,10.58
2022-11-25T14:53:25.640Z,10.53
2022-11-25T14:55:57.757Z,10.37
2022-11-25T14:58:25.421Z,10.33
2022-11-25T15:00:54.745Z,10.31
2022-11-25T15:03:22.252Z,10.33
2022-11-25T15:05:55.534Z,10.20
2022-11-25T15:08:25.430Z,10.25
2022-11-25T15:10:55.226Z,10.12
2022-11-25T15:13:32.964Z,10.06
2022-11-25T15:16:06.635Z,9.85
2022-11-25T15:18:35.215Z,9.94
2022-11-25T15:21:03.267Z,9.77
2022-11-25T15:23:34.741Z,9.89
2022-11-25T15:26:03.334Z,9.92
2022-11-25T15:28:36.391Z,9.99
2022-11-25T15:31:09.978Z,9.91
2022-11-25T15:33:38.199Z,9.96
2022-11-25T15:36:06.484Z,9.91
2022-11-25T15:38:42.468Z,9.85
2022-11-25T15:41:20.043Z,9.93
2022-11-25T15:43:49.841Z,9.81
2022-11-25T15:46:17.941Z,9.72
2022-11-25T15:48:47.510Z,9.63
2022-11-25T15:51:22.933Z,9.79
2022-11-25T15:53:54.949Z,9.91
2022-11-25T15:56:25.797Z,9.88
2022-11-25T15:58:56.177Z,9.84
2022-11-25T16:01:29.929Z,9.76
2022-11-25T16:04:11.511Z,9.83
2022-11-25T16:06:53.505Z,9.76
2022-11-25T16:09:25.491Z,9.75
2022-11-25T16:11:53.307Z,9.86
2022-11-25T16:14:27.136Z,9.85
2022-11-25T16:16:57.141Z,9.78
2022-11-25T16:19:27.742Z,9.72
2022-11-25T16:22:01.496Z,9.76
2022-11-25T16:24:39.830Z,9.78
2022-11-25T16:27:17.199Z,9.56
2022-11-25T16:29:54.154Z,9.46
2022-11-25T16:32:23.367Z,9.37
2022-11-25T16:34:51.022Z,9.25
2022-11-25T16:37:18.879Z,9.15
2022-11-25T16:39:48.877Z,9.11
2022-11-25T16:42:21.532Z,9.08
2022-11-25T16:44:50.898Z,8.97
2022-11-25T16:47:23.108Z,9.06
2022-11-25T16:49:50.937Z,8.96
2022-11-25T16:52:21.488Z,8.89
2022-11-25T16:54:50.411Z,8.60
2022-11-25T16:57:20.337Z,8.70
2022-11-25T16:59:57.265Z,8.37
2022-11-25T17:02:27.893Z,8.37
2022-11-25T17:04:55.580Z,8.16
2022-11-25T17:07:32.772Z,8.33
2022-11-25T17:10:02.677Z,8.23
2022-11-25T17:12:32.194Z,8.24
2022-11-25T17:15:01.158Z,8.30
2022-11-25T17:17:29.265Z,8.24
2022-11-25T17:19:57.234Z,8.28
2022-11-25T17:22:27.063Z,8.24
2022-11-25T17:24:54.880Z,8.62
2022-11-25T17:27:27.286Z,8.56
2022-11-25T17:29:55.883Z,8.58
2022-11-25T17:32:25.561Z,8.74
2022-11-25T17:34:54.348Z,8.69
2022-11-25T17:37:24.147Z,8.62
2022-11-25T17:39:53.361Z,8.70
2022-11-25T17:42:26.791Z,8.60
2022-11-25T17:44:55.594Z,8.52
2022-11-25T17:47:23.125Z,8.47
2022-11-25T17:49:52.119Z,8.56
2022-11-25T17:52:19.908Z,8.55
2022-11-25T17:54:47.578Z,8.48
2022-11-25T17:57:17.069Z,8.51
2022-11-25T17:59:46.195Z,8.53
2022-11-25T18:02:19.514Z,8.53
2022-11-25T18:04:47.624Z,8.55
2022-11-25T18:07:15.421Z,8.54
2022-11-25T18:09:44.530Z,8.49
2022-11-25T18:12:31.122Z,8.55
2022-11-25T18:15:01.207Z,8.52
2022-11-25T18:17:29.390Z,8.51
2022-11-25T18:19:57.872Z,8.49
2022-11-25T18:22:25.366Z,8.59
2022-11-25T18:24:53.039Z,8.53
2022-11-25T18:27:24.087Z,8.42
2022-11-25T18:29:52.329Z,8.35
2022-11-25T18:32:22.533Z,8.48
2022-11-25T18:34:50.506Z,8.32
2022-11-25T18:37:18.367Z,8.30
2022-11-25T18:39:46.734Z,8.30
2022-11-25T18:42:20.887Z,8.29
2022-11-25T18:44:48.834Z,8.18
2022-11-25T18:47:16.409Z,8.14
2022-11-25T18:49:45.543Z,8.02
2022-11-25T18:52:13.074Z,8.03
2022-11-25T18:54:41.419Z,8.05
2022-11-25T18:57:10.636Z,8.04
2022-11-25T18:59:38.255Z,7.95
2022-11-25T19:02:12.049Z,7.80
2022-11-25T19:04:39.951Z,7.81
2022-11-25T19:07:09.105Z,7.89
2022-11-25T19:09:36.748Z,7.85
2022-11-25T19:12:05.131Z,7.92
2022-11-25T19:14:49.049Z,7.95
2022-11-25T19:17:22.001Z,7.98
2022-11-25T19:19:49.727Z,8.23
2022-11-25T19:22:23.198Z,8.04
2022-11-25T19:24:51.169Z,8.12
2022-11-25T19:27:23.333Z,8.07
2022-11-25T19:29:52.923Z,8.21
2022-11-25T19:32:22.763Z,8.04
2022-11-25T19:34:53.640Z,8.14
2022-11-25T19:37:23.840Z,8.20
2022-11-25T19:39:53.347Z,8.10
2022-11-25T19:42:20.889Z,8.17
2022-11-25T19:44:49.192Z,8.15
2022-11-25T19:47:18.879Z,8.19
2022-11-25T19:49:46.876Z,8.11
2022-11-25T19:52:16.989Z,8.20
2022-11-25T19:54:45.927Z,8.12
2022-11-25T19:57:17.109Z,8.10
2022-11-25T19:59:45.918Z,8.21
2022-11-25T20:02:16.357Z,8.17
2022-11-25T20:04:45.565Z,8.29
2022-11-25T20:07:14.988Z,8.20
2022-11-25T20:09:42.851Z,8.16
2022-11-25T20:12:20.896Z,8.26
2022-11-25T20:14:50.275Z,8.10
2022-11-25T20:17:24.651Z,8.15
2022-11-25T20:19:53.255Z,8.15
2022-11-25T20:22:23.344Z,8.04
2022-11-25T20:24:51.307Z,7.99
2022-11-25T20:27:20.680Z,8.01
2022-11-25T20:29:48.662Z,7.91
2022-11-25T20:32:20.737Z,7.94
2022-11-25T20:34:48.561Z,7.98
2022-11-25T20:37:30.358Z,7.77
2022-11-25T20:40:00.860Z,7.80
2022-11-25T20:42:32.615Z,7.94
2022-11-25T20:45:01.589Z,7.77
2022-11-25T20:47:30.087Z,7.67
2022-11-25T20:49:57.636Z,7.52
2022-11-25T20:52:28.326Z,7.61
2022-11-25T20:54:55.866Z,7.64
2022-11-25T20:57:23.755Z,7.47
2022-11-25T20:59:52.841Z,7.45
2022-11-25T21:02:21.411Z,7.47
2022-11-25T21:04:49.961Z,7.48
2022-11-25T21:07:18.715Z,7.27
2022-11-25T21:09:46.582Z,7.33
2022-11-25T21:12:19.530Z,7.32
2022-11-25T21:14:48.309Z,7.25
2022-11-25T21:17:17.534Z,7.10
2022-11-25T21:19:45.460Z,7.18
2022-11-25T21:22:14.866Z,7.00
2022-11-25T21:24:42.997Z,7.04
2022-11-25T21:27:14.626Z,7.15
2022-11-25T21:29:44.218Z,6.90
2022-11-25T21:32:21.886Z,6.86
2022-11-25T21:34:50.101Z,6.88
2022-11-25T21:37:21.862Z,6.89
2022-11-25T21:39:49.646Z,6.92
2022-11-25T21:42:20.170Z,6.95
2022-11-25T21:44:49.961Z,6.82
2022-11-25T21:47:19.148Z,6.82
2022-11-25T21:49:51.994Z,7.00
2022-11-25T21:52:20.459Z,7.04
2022-11-25T21:54:47.997Z,6.88
2022-11-25T21:57:17.179Z,6.73
2022-11-25T21:59:46.435Z,6.83
2022-11-25T22:02:19.625Z,6.74
2022-11-25T22:04:48.972Z,6.68
2022-11-25T22:07:16.661Z,6.76
2022-11-25T22:09:44.524Z,6.64
2022-11-25T22:12:25.818Z,6.52
2022-11-25T22:14:53.565Z,6.36
2022-11-25T22:17:21.234Z,6.29
2022-11-25T22:19:51.971Z,6.27
2022-11-25T22:22:21.707Z,6.32
2022-11-25T22:24:49.394Z,6.26
2022-11-25T22:27:22.525Z,6.19
2022-11-25T22:29:51.578Z,6.35
2022-11-25T22:32:19.210Z,6.17
2022-11-25T22:34:48.240Z,6.10
2022-11-25T22:37:19.617Z,5.97
2022-11-25T22:39:47.713Z,5.90
2022-11-25T22:42:20.362Z,5.86
2022-11-25T22:44:49.111Z,5.82
2022-11-25T22:47:28.354Z,5.76
2022-11-25T22:49:57.263Z,5.65
2022-11-25T22:52:28.554Z,5.54
2022-11-25T22:54:56.613Z,5.50
2022-11-25T22:57:24.260Z,5.40
2022-11-25T22:59:52.850Z,5.43
2022-11-25T23:02:22.615Z,5.45
2022-11-25T23:04:53.154Z,5.34
2022-11-25T23:07:21.286Z,5.34
2022-11-25T23:09:50.694Z,5.48
2022-11-25T23:12:19.094Z,5.29
2022-11-25T23:14:46.731Z,5.44
2022-11-25T23:17:18.958Z,5.65
2022-11-25T23:19:46.584Z,5.52
2022-11-25T23:22:14.416Z,5.39
2022-11-25T23:24:45.361Z,5.28
2022-11-25T23:27:14.769Z,5.01
2022-11-25T23:29:42.466Z,5.04
2022-11-25T23:32:17.832Z,4.89
2022-11-25T23:34:46.749Z,4.76
2022-11-25T23:37:15.354Z,4.66
2022-11-25T23:39:42.965Z,4.60
2022-11-25T23:42:17.892Z,4.50
2022-11-25T23:44:45.626Z,4.33
2022-11-25T23:47:18.686Z,4.24
2022-11-25T23:49:48.824Z,4.24
2022-11-25T23:52:20.155Z,4.06
2022-11-25T23:54:49.159Z,4.13
2022-11-25T23:57:18.929Z,4.18
2022-11-25T23:59:48.510Z,4.25
